sensor_id;sensor_type;location;lat;lon;timestamp;temperature;humidity
37956;DHT22;23776;51.592;7.180;2023-03-17T00:01:16;9.90;1.00
37956;DHT22;23776;51.592;7.180;2023-03-17T00:03:44;9.90;1.00
37956;DHT22;23776;51.592;7.180;2023-03-17T00:06:15;9.90;1.00
37956;DHT22;23776;51.592;7.180;2023-03-17T00:08:42;10.00;1.00
37956;DHT22;23776;51.592;7.180;2023-03-17T00:11:16;9.90;1.00
37956;DHT22;23776;51.592;7.180;2023-03-17T00:13:43;10.00;1.00
37956;DHT22;23776;51.592;7.180;2023-03-17T00:16:26;10.10;1.00
37956;DHT22;23776;51.592;7.180;2023-03-17T00:18:53;10.10;1.00
37956;DHT22;23776;51.592;7.180;2023-03-17T00:21:30;10.20;1.00
37956;DHT22;23776;51.592;7.180;2023-03-17T00:23:57;10.20;1.00
37956;DHT22;23776;51.592;7.180;2023-03-17T00:26:24;10.10;1.00
37956;DHT22;23776;51.592;7.180;2023-03-17T00:28:50;10.20;1.00
37956;DHT22;23776;51.592;7.180;2023-03-17T00:31:18;10.10;1.00
37956;DHT22;23776;51.592;7.180;2023-03-17T00:33:46;10.10;1.00
37956;DHT22;23776;51.592;7.180;2023-03-17T00:36:21;10.20;1.00
37956;DHT22;23776;51.592;7.180;2023-03-17T00:38:49;10.30;1.00
37956;DHT22;23776;51.592;7.180;2023-03-17T00:41:14;10.40;99.90
37956;DHT22;23776;51.592;7.180;2023-03-17T00:43:41;10.40;99.90
37956;DHT22;23776;51.592;7.180;2023-03-17T00:46:28;10.40;99.90
37956;DHT22;23776;51.592;7.180;2023-03-17T00:49:03;10.40;99.90
37956;DHT22;23776;51.592;7.180;2023-03-17T00:51:29;10.40;99.90
37956;DHT22;23776;51.592;7.180;2023-03-17T00:53:55;10.30;99.90
37956;DHT22;23776;51.592;7.180;2023-03-17T00:56:21;10.30;99.90
37956;DHT22;23776;51.592;7.180;2023-03-17T00:58:47;10.30;99.90
37956;DHT22;23776;51.592;7.180;2023-03-17T01:01:13;10.20;99.90
37956;DHT22;23776;51.592;7.180;2023-03-17T01:03:39;10.20;99.90
37956;DHT22;23776;51.592;7.180;2023-03-17T01:06:08;10.20;99.90
37956;DHT22;23776;51.592;7.180;2023-03-17T01:08:35;10.20;99.90
37956;DHT22;23776;51.592;7.180;2023-03-17T01:11:01;10.20;1.00
37956;DHT22;23776;51.592;7.180;2023-03-17T01:13:27;10.10;1.00
37956;DHT22;23776;51.592;7.180;2023-03-17T01:15:53;10.10;1.00
37956;DHT22;23776;51.592;7.180;2023-03-17T01:18:21;10.10;1.00
37956;DHT22;23776;51.592;7.180;2023-03-17T01:20:48;10.00;1.00
37956;DHT22;23776;51.592;7.180;2023-03-17T01:23:14;10.10;1.00
37956;DHT22;23776;51.592;7.180;2023-03-17T01:25:42;10.00;1.00
37956;DHT22;23776;51.592;7.180;2023-03-17T01:28:15;10.00;1.00
37956;DHT22;23776;51.592;7.180;2023-03-17T01:30:42;10.00;1.00
37956;DHT22;23776;51.592;7.180;2023-03-17T01:33:10;10.00;1.00
37956;DHT22;23776;51.592;7.180;2023-03-17T01:35:38;10.00;1.00
37956;DHT22;23776;51.592;7.180;2023-03-17T01:38:04;10.00;1.00
37956;DHT22;23776;51.592;7.180;2023-03-17T01:40:36;10.00;1.00
37956;DHT22;23776;51.592;7.180;2023-03-17T01:51:39;10.00;1.00
37956;DHT22;23776;51.592;7.180;2023-03-17T01:54:11;10.00;1.00
37956;DHT22;23776;51.592;7.180;2023-03-17T01:56:40;10.00;1.00
37956;DHT22;23776;51.592;7.180;2023-03-17T01:59:12;10.10;1.00
37956;DHT22;23776;51.592;7.180;2023-03-17T02:01:42;10.00;1.00
37956;DHT22;23776;51.592;7.180;2023-03-17T02:04:10;10.00;99.90
37956;DHT22;23776;51.592;7.180;2023-03-17T02:06:36;10.10;99.90
37956;DHT22;23776;51.592;7.180;2023-03-17T02:09:03;10.00;1.00
37956;DHT22;23776;51.592;7.180;2023-03-17T02:11:29;10.00;99.90
37956;DHT22;23776;51.592;7.180;2023-03-17T02:13:56;10.00;99.90
37956;DHT22;23776;51.592;7.180;2023-03-17T02:16:22;10.00;99.90
37956;DHT22;23776;51.592;7.180;2023-03-17T02:18:47;10.00;99.90
37956;DHT22;23776;51.592;7.180;2023-03-17T02:21:39;9.90;99.90
37956;DHT22;23776;51.592;7.180;2023-03-17T02:26:46;10.00;1.00
37956;DHT22;23776;51.592;7.180;2023-03-17T02:29:13;10.00;1.00
37956;DHT22;23776;51.592;7.180;2023-03-17T02:31:41;10.00;1.00
37956;DHT22;23776;51.592;7.180;2023-03-17T02:34:08;9.90;1.00
37956;DHT22;23776;51.592;7.180;2023-03-17T02:36:33;9.90;99.90
37956;DHT22;23776;51.592;7.180;2023-03-17T02:38:59;9.90;99.90
37956;DHT22;23776;51.592;7.180;2023-03-17T02:41:25;9.90;1.00
37956;DHT22;23776;51.592;7.180;2023-03-17T02:43:51;9.90;1.00
37956;DHT22;23776;51.592;7.180;2023-03-17T02:46:18;9.90;99.90
37956;DHT22;23776;51.592;7.180;2023-03-17T02:48:44;9.90;99.90
37956;DHT22;23776;51.592;7.180;2023-03-17T02:51:11;10.00;99.90
37956;DHT22;23776;51.592;7.180;2023-03-17T02:53:36;10.00;99.90
37956;DHT22;23776;51.592;7.180;2023-03-17T02:56:03;9.80;1.00
37956;DHT22;23776;51.592;7.180;2023-03-17T02:58:29;9.80;1.00
37956;DHT22;23776;51.592;7.180;2023-03-17T03:00:54;9.70;1.00
37956;DHT22;23776;51.592;7.180;2023-03-17T03:03:20;9.70;1.00
37956;DHT22;23776;51.592;7.180;2023-03-17T03:05:46;9.60;1.00
37956;DHT22;23776;51.592;7.180;2023-03-17T03:08:12;9.50;1.00
37956;DHT22;23776;51.592;7.180;2023-03-17T03:10:37;9.50;1.00
37956;DHT22;23776;51.592;7.180;2023-03-17T03:13:03;9.40;1.00
37956;DHT22;23776;51.592;7.180;2023-03-17T03:15:29;9.40;1.00
37956;DHT22;23776;51.592;7.180;2023-03-17T03:17:54;9.40;1.00
37956;DHT22;23776;51.592;7.180;2023-03-17T03:20:20;8.00;1.00
37956;DHT22;23776;51.592;7.180;2023-03-17T03:22:46;9.30;1.00
37956;DHT22;23776;51.592;7.180;2023-03-17T03:25:11;9.40;1.00
37956;DHT22;23776;51.592;7.180;2023-03-17T03:27:37;9.40;1.00
37956;DHT22;23776;51.592;7.180;2023-03-17T03:30:03;7.60;1.00
37956;DHT22;23776;51.592;7.180;2023-03-17T03:32:32;9.40;1.00
37956;DHT22;23776;51.592;7.180;2023-03-17T03:34:58;9.50;1.00
37956;DHT22;23776;51.592;7.180;2023-03-17T03:37:24;9.40;1.00
37956;DHT22;23776;51.592;7.180;2023-03-17T03:39:50;9.30;1.00
37956;DHT22;23776;51.592;7.180;2023-03-17T03:42:16;9.20;1.00
37956;DHT22;23776;51.592;7.180;2023-03-17T03:44:42;9.20;1.00
37956;DHT22;23776;51.592;7.180;2023-03-17T03:47:08;9.20;1.00
37956;DHT22;23776;51.592;7.180;2023-03-17T03:49:34;9.20;1.00
37956;DHT22;23776;51.592;7.180;2023-03-17T03:51:59;9.20;1.00
37956;DHT22;23776;51.592;7.180;2023-03-17T03:54:25;9.20;1.00
37956;DHT22;23776;51.592;7.180;2023-03-17T03:56:51;9.20;1.00
37956;DHT22;23776;51.592;7.180;2023-03-17T03:59:17;9.10;1.00
37956;DHT22;23776;51.592;7.180;2023-03-17T04:01:42;9.10;1.00
37956;DHT22;23776;51.592;7.180;2023-03-17T04:04:08;9.10;1.00
37956;DHT22;23776;51.592;7.180;2023-03-17T04:06:33;9.10;1.00
37956;DHT22;23776;51.592;7.180;2023-03-17T04:08:59;9.10;1.00
37956;DHT22;23776;51.592;7.180;2023-03-17T04:11:24;9.00;1.00
37956;DHT22;23776;51.592;7.180;2023-03-17T04:13:50;9.00;1.00
37956;DHT22;23776;51.592;7.180;2023-03-17T04:16:16;8.90;1.00
37956;DHT22;23776;51.592;7.180;2023-03-17T04:18:41;8.90;18.90
37956;DHT22;23776;51.592;7.180;2023-03-17T04:21:07;8.80;64.50
37956;DHT22;23776;51.592;7.180;2023-03-17T04:23:33;8.80;76.40
37956;DHT22;23776;51.592;7.180;2023-03-17T04:25:58;8.70;68.50
37956;DHT22;23776;51.592;7.180;2023-03-17T04:28:24;8.70;55.70
37956;DHT22;23776;51.592;7.180;2023-03-17T04:30:50;8.70;36.30
37956;DHT22;23776;51.592;7.180;2023-03-17T04:33:15;8.70;46.80
37956;DHT22;23776;51.592;7.180;2023-03-17T04:35:41;8.70;99.90
37956;DHT22;23776;51.592;7.180;2023-03-17T04:38:09;8.70;99.90
37956;DHT22;23776;51.592;7.180;2023-03-17T04:40:36;8.60;99.90
37956;DHT22;23776;51.592;7.180;2023-03-17T04:43:01;8.60;99.90
37956;DHT22;23776;51.592;7.180;2023-03-17T04:45:27;10.60;99.90
37956;DHT22;23776;51.592;7.180;2023-03-17T04:47:52;8.60;99.90
37956;DHT22;23776;51.592;7.180;2023-03-17T04:50:18;8.50;99.90
37956;DHT22;23776;51.592;7.180;2023-03-17T04:52:44;8.50;99.90
37956;DHT22;23776;51.592;7.180;2023-03-17T04:55:10;8.50;99.90
37956;DHT22;23776;51.592;7.180;2023-03-17T04:57:36;8.40;99.90
37956;DHT22;23776;51.592;7.180;2023-03-17T05:00:04;8.40;99.90
37956;DHT22;23776;51.592;7.180;2023-03-17T05:02:30;8.50;99.90
37956;DHT22;23776;51.592;7.180;2023-03-17T05:04:56;8.60;98.20
37956;DHT22;23776;51.592;7.180;2023-03-17T05:07:21;8.60;81.30
37956;DHT22;23776;51.592;7.180;2023-03-17T05:09:47;8.70;51.80
37956;DHT22;23776;51.592;7.180;2023-03-17T05:12:13;8.70;44.50
37956;DHT22;23776;51.592;7.180;2023-03-17T05:14:38;8.80;29.40
37956;DHT22;23776;51.592;7.180;2023-03-17T05:17:04;8.80;27.10
37956;DHT22;23776;51.592;7.180;2023-03-17T05:19:30;8.90;3.50
37956;DHT22;23776;51.592;7.180;2023-03-17T05:21:56;9.00;1.00
37956;DHT22;23776;51.592;7.180;2023-03-17T05:24:22;9.00;1.00
37956;DHT22;23776;51.592;7.180;2023-03-17T05:26:47;8.90;1.00
37956;DHT22;23776;51.592;7.180;2023-03-17T05:29:13;9.00;1.00
37956;DHT22;23776;51.592;7.180;2023-03-17T05:31:38;9.00;1.00
37956;DHT22;23776;51.592;7.180;2023-03-17T05:34:04;9.00;1.00
37956;DHT22;23776;51.592;7.180;2023-03-17T05:36:30;7.30;1.00
37956;DHT22;23776;51.592;7.180;2023-03-17T05:38:56;8.80;1.00
37956;DHT22;23776;51.592;7.180;2023-03-17T05:41:22;8.80;23.30
37956;DHT22;23776;51.592;7.180;2023-03-17T05:43:48;8.70;86.30
37956;DHT22;23776;51.592;7.180;2023-03-17T05:46:14;8.60;99.00
37956;DHT22;23776;51.592;7.180;2023-03-17T05:48:39;8.60;99.90
37956;DHT22;23776;51.592;7.180;2023-03-17T05:51:06;8.50;99.90
37956;DHT22;23776;51.592;7.180;2023-03-17T05:53:32;8.50;99.90
37956;DHT22;23776;51.592;7.180;2023-03-17T05:55:58;8.40;99.90
37956;DHT22;23776;51.592;7.180;2023-03-17T05:58:23;8.40;92.10
37956;DHT22;23776;51.592;7.180;2023-03-17T06:00:49;8.40;99.90
37956;DHT22;23776;51.592;7.180;2023-03-17T06:03:15;8.40;99.90
37956;DHT22;23776;51.592;7.180;2023-03-17T06:05:41;8.50;99.90
37956;DHT22;23776;51.592;7.180;2023-03-17T06:08:06;8.40;99.90
37956;DHT22;23776;51.592;7.180;2023-03-17T06:10:32;8.40;99.90
37956;DHT22;23776;51.592;7.180;2023-03-17T06:12:58;8.40;99.90
37956;DHT22;23776;51.592;7.180;2023-03-17T06:15:24;8.40;99.90
37956;DHT22;23776;51.592;7.180;2023-03-17T06:17:50;8.30;99.90
37956;DHT22;23776;51.592;7.180;2023-03-17T06:20:17;8.40;99.90
37956;DHT22;23776;51.592;7.180;2023-03-17T06:22:43;8.40;99.90
37956;DHT22;23776;51.592;7.180;2023-03-17T06:25:12;8.40;99.90
37956;DHT22;23776;51.592;7.180;2023-03-17T06:27:38;8.50;99.90
37956;DHT22;23776;51.592;7.180;2023-03-17T06:30:05;8.50;99.90
37956;DHT22;23776;51.592;7.180;2023-03-17T06:32:32;8.50;99.90
37956;DHT22;23776;51.592;7.180;2023-03-17T06:34:58;8.60;99.90
37956;DHT22;23776;51.592;7.180;2023-03-17T06:37:23;8.60;99.90
37956;DHT22;23776;51.592;7.180;2023-03-17T06:39:49;8.70;99.90
37956;DHT22;23776;51.592;7.180;2023-03-17T06:42:15;8.90;99.90
37956;DHT22;23776;51.592;7.180;2023-03-17T06:44:41;8.90;99.90
37956;DHT22;23776;51.592;7.180;2023-03-17T06:47:06;9.10;98.20
37956;DHT22;23776;51.592;7.180;2023-03-17T06:49:32;9.30;19.70
37956;DHT22;23776;51.592;7.180;2023-03-17T06:51:58;9.40;1.00
37956;DHT22;23776;51.592;7.180;2023-03-17T06:54:24;9.40;1.00
37956;DHT22;23776;51.592;7.180;2023-03-17T06:56:51;9.50;4.20
37956;DHT22;23776;51.592;7.180;2023-03-17T06:59:17;9.50;1.00
37956;DHT22;23776;51.592;7.180;2023-03-17T07:01:43;9.70;1.00
37956;DHT22;23776;51.592;7.180;2023-03-17T07:04:09;9.60;1.00
37956;DHT22;23776;51.592;7.180;2023-03-17T07:06:35;9.80;1.00
37956;DHT22;23776;51.592;7.180;2023-03-17T07:09:01;9.90;1.00
37956;DHT22;23776;51.592;7.180;2023-03-17T07:11:28;10.00;1.00
37956;DHT22;23776;51.592;7.180;2023-03-17T07:13:55;10.10;1.00
37956;DHT22;23776;51.592;7.180;2023-03-17T07:16:20;10.20;1.00
37956;DHT22;23776;51.592;7.180;2023-03-17T07:18:46;10.40;1.00
37956;DHT22;23776;51.592;7.180;2023-03-17T07:21:12;10.50;1.00
37956;DHT22;23776;51.592;7.180;2023-03-17T07:23:37;10.60;1.00
37956;DHT22;23776;51.592;7.180;2023-03-17T07:26:03;10.80;1.00
37956;DHT22;23776;51.592;7.180;2023-03-17T07:28:29;10.90;1.00
37956;DHT22;23776;51.592;7.180;2023-03-17T07:30:55;11.00;1.00
37956;DHT22;23776;51.592;7.180;2023-03-17T07:33:22;11.20;1.00
37956;DHT22;23776;51.592;7.180;2023-03-17T07:35:50;11.30;1.00
37956;DHT22;23776;51.592;7.180;2023-03-17T07:38:17;11.50;1.00
37956;DHT22;23776;51.592;7.180;2023-03-17T07:40:45;11.60;1.00
37956;DHT22;23776;51.592;7.180;2023-03-17T07:43:15;11.70;1.00
37956;DHT22;23776;51.592;7.180;2023-03-17T07:45:42;11.80;99.90
37956;DHT22;23776;51.592;7.180;2023-03-17T07:48:07;11.90;99.90
37956;DHT22;23776;51.592;7.180;2023-03-17T07:50:34;12.00;99.90
37956;DHT22;23776;51.592;7.180;2023-03-17T07:53:01;12.10;99.90
37956;DHT22;23776;51.592;7.180;2023-03-17T07:55:31;12.20;99.90
37956;DHT22;23776;51.592;7.180;2023-03-17T07:57:57;12.30;99.90
37956;DHT22;23776;51.592;7.180;2023-03-17T08:00:22;12.30;99.90
37956;DHT22;23776;51.592;7.180;2023-03-17T08:02:49;12.40;99.90
37956;DHT22;23776;51.592;7.180;2023-03-17T08:05:16;12.50;99.90
37956;DHT22;23776;51.592;7.180;2023-03-17T08:07:42;12.60;99.90
37956;DHT22;23776;51.592;7.180;2023-03-17T08:10:09;12.60;99.90
37956;DHT22;23776;51.592;7.180;2023-03-17T08:12:37;12.80;99.90
37956;DHT22;23776;51.592;7.180;2023-03-17T08:15:03;12.90;99.90
37956;DHT22;23776;51.592;7.180;2023-03-17T08:17:28;13.00;99.90
37956;DHT22;23776;51.592;7.180;2023-03-17T08:19:55;13.00;99.90
37956;DHT22;23776;51.592;7.180;2023-03-17T08:22:21;13.00;99.90
37956;DHT22;23776;51.592;7.180;2023-03-17T08:24:47;13.10;99.90
37956;DHT22;23776;51.592;7.180;2023-03-17T08:27:16;13.10;99.90
37956;DHT22;23776;51.592;7.180;2023-03-17T08:29:43;13.10;99.90
37956;DHT22;23776;51.592;7.180;2023-03-17T08:32:10;13.20;99.90
37956;DHT22;23776;51.592;7.180;2023-03-17T08:34:36;13.20;99.90
37956;DHT22;23776;51.592;7.180;2023-03-17T08:37:02;13.20;99.90
37956;DHT22;23776;51.592;7.180;2023-03-17T08:39:27;13.20;99.90
37956;DHT22;23776;51.592;7.180;2023-03-17T08:41:54;13.20;99.90
37956;DHT22;23776;51.592;7.180;2023-03-17T08:44:20;13.20;99.90
37956;DHT22;23776;51.592;7.180;2023-03-17T08:46:46;13.20;99.90
37956;DHT22;23776;51.592;7.180;2023-03-17T08:49:14;13.30;99.90
37956;DHT22;23776;51.592;7.180;2023-03-17T08:51:41;13.40;99.90
37956;DHT22;23776;51.592;7.180;2023-03-17T08:54:07;13.40;99.90
37956;DHT22;23776;51.592;7.180;2023-03-17T08:56:33;13.50;99.90
37956;DHT22;23776;51.592;7.180;2023-03-17T08:58:59;13.50;99.90
37956;DHT22;23776;51.592;7.180;2023-03-17T09:01:24;13.60;99.90
37956;DHT22;23776;51.592;7.180;2023-03-17T09:03:53;13.70;99.90
37956;DHT22;23776;51.592;7.180;2023-03-17T09:06:19;13.70;99.90
37956;DHT22;23776;51.592;7.180;2023-03-17T09:08:45;13.80;99.90
37956;DHT22;23776;51.592;7.180;2023-03-17T09:11:14;13.80;99.90
37956;DHT22;23776;51.592;7.180;2023-03-17T09:13:41;13.90;99.90
37956;DHT22;23776;51.592;7.180;2023-03-17T09:16:06;14.10;99.90
37956;DHT22;23776;51.592;7.180;2023-03-17T09:18:33;14.20;99.90
37956;DHT22;23776;51.592;7.180;2023-03-17T09:20:59;14.30;99.90
37956;DHT22;23776;51.592;7.180;2023-03-17T09:23:25;14.40;99.90
37956;DHT22;23776;51.592;7.180;2023-03-17T09:25:50;14.50;99.90
37956;DHT22;23776;51.592;7.180;2023-03-17T09:28:16;14.70;99.90
37956;DHT22;23776;51.592;7.180;2023-03-17T09:30:43;14.80;99.90
37956;DHT22;23776;51.592;7.180;2023-03-17T09:33:10;14.90;99.90
37956;DHT22;23776;51.592;7.180;2023-03-17T09:35:37;15.10;99.90
37956;DHT22;23776;51.592;7.180;2023-03-17T09:38:04;15.20;99.90
37956;DHT22;23776;51.592;7.180;2023-03-17T09:40:35;15.30;99.90
37956;DHT22;23776;51.592;7.180;2023-03-17T09:43:21;15.50;99.90
37956;DHT22;23776;51.592;7.180;2023-03-17T09:45:50;15.50;99.90
37956;DHT22;23776;51.592;7.180;2023-03-17T09:50:56;15.40;99.90
37956;DHT22;23776;51.592;7.180;2023-03-17T09:56:13;15.70;99.90
37956;DHT22;23776;51.592;7.180;2023-03-17T09:59:15;15.90;99.90
37956;DHT22;23776;51.592;7.180;2023-03-17T10:01:29;16.00;99.90
37956;DHT22;23776;51.592;7.180;2023-03-17T10:03:55;16.10;99.90
37956;DHT22;23776;51.592;7.180;2023-03-17T10:06:28;16.10;99.90
37956;DHT22;23776;51.592;7.180;2023-03-17T10:12:40;16.20;99.90
37956;DHT22;23776;51.592;7.180;2023-03-17T10:17:37;16.30;99.90
37956;DHT22;23776;51.592;7.180;2023-03-17T10:23:06;16.60;99.90
37956;DHT22;23776;51.592;7.180;2023-03-17T10:25:34;16.80;99.90
37956;DHT22;23776;51.592;7.180;2023-03-17T10:30:43;17.00;99.90
37956;DHT22;23776;51.592;7.180;2023-03-17T10:33:09;17.00;99.90
37956;DHT22;23776;51.592;7.180;2023-03-17T10:35:36;17.00;99.90
37956;DHT22;23776;51.592;7.180;2023-03-17T10:38:20;17.00;99.90
37956;DHT22;23776;51.592;7.180;2023-03-17T10:40:56;17.20;99.90
37956;DHT22;23776;51.592;7.180;2023-03-17T10:43:27;17.40;99.90
37956;DHT22;23776;51.592;7.180;2023-03-17T10:45:58;17.80;99.90
37956;DHT22;23776;51.592;7.180;2023-03-17T10:48:24;18.40;99.90
37956;DHT22;23776;51.592;7.180;2023-03-17T10:50:49;18.60;99.90
37956;DHT22;23776;51.592;7.180;2023-03-17T10:53:25;18.60;99.90
37956;DHT22;23776;51.592;7.180;2023-03-17T10:55:58;18.80;99.90
37956;DHT22;23776;51.592;7.180;2023-03-17T10:58:57;18.90;99.90
37956;DHT22;23776;51.592;7.180;2023-03-17T11:01:36;19.90;99.90
37956;DHT22;23776;51.592;7.180;2023-03-17T11:04:37;19.50;99.90
37956;DHT22;23776;51.592;7.180;2023-03-17T11:07:25;19.70;99.90
37956;DHT22;23776;51.592;7.180;2023-03-17T11:09:57;19.40;99.90
37956;DHT22;23776;51.592;7.180;2023-03-17T11:12:27;19.00;99.90
37956;DHT22;23776;51.592;7.180;2023-03-17T11:15:06;19.00;99.90
37956;DHT22;23776;51.592;7.180;2023-03-17T11:17:59;19.20;99.90
37956;DHT22;23776;51.592;7.180;2023-03-17T11:23:01;19.60;99.90
37956;DHT22;23776;51.592;7.180;2023-03-17T11:25:30;19.50;99.90
37956;DHT22;23776;51.592;7.180;2023-03-17T11:28:14;19.50;99.90
37956;DHT22;23776;51.592;7.180;2023-03-17T11:30:50;19.90;99.90
37956;DHT22;23776;51.592;7.180;2023-03-17T11:33:35;20.20;99.90
37956;DHT22;23776;51.592;7.180;2023-03-17T11:36:42;20.40;99.90
37956;DHT22;23776;51.592;7.180;2023-03-17T11:39:11;20.60;99.90
37956;DHT22;23776;51.592;7.180;2023-03-17T11:44:35;21.60;99.90
37956;DHT22;23776;51.592;7.180;2023-03-17T11:58:41;21.80;99.90
37956;DHT22;23776;51.592;7.180;2023-03-17T12:01:23;21.60;99.90
37956;DHT22;23776;51.592;7.180;2023-03-17T12:06:40;21.00;99.90
37956;DHT22;23776;51.592;7.180;2023-03-17T12:09:35;21.00;99.90
37956;DHT22;23776;51.592;7.180;2023-03-17T12:12:03;20.90;99.90
37956;DHT22;23776;51.592;7.180;2023-03-17T12:14:40;21.20;99.90
37956;DHT22;23776;51.592;7.180;2023-03-17T12:17:33;21.30;99.90
37956;DHT22;23776;51.592;7.180;2023-03-17T12:20:06;21.20;99.90
37956;DHT22;23776;51.592;7.180;2023-03-17T12:22:43;21.30;99.90
37956;DHT22;23776;51.592;7.180;2023-03-17T12:30:44;21.30;99.90
37956;DHT22;23776;51.592;7.180;2023-03-17T12:33:29;21.50;99.90
37956;DHT22;23776;51.592;7.180;2023-03-17T12:35:58;21.70;99.90
37956;DHT22;23776;51.592;7.180;2023-03-17T12:38:53;21.90;99.90
37956;DHT22;23776;51.592;7.180;2023-03-17T12:50:22;21.40;99.90
37956;DHT22;23776;51.592;7.180;2023-03-17T12:55:26;21.40;99.90
37956;DHT22;23776;51.592;7.180;2023-03-17T12:58:00;21.60;99.90
37956;DHT22;23776;51.592;7.180;2023-03-17T13:00:32;21.60;99.90
37956;DHT22;23776;51.592;7.180;2023-03-17T13:05:45;21.40;99.90
37956;DHT22;23776;51.592;7.180;2023-03-17T13:08:16;21.30;99.90
37956;DHT22;23776;51.592;7.180;2023-03-17T13:10:45;21.30;99.90
37956;DHT22;23776;51.592;7.180;2023-03-17T13:13:39;21.30;99.90
37956;DHT22;23776;51.592;7.180;2023-03-17T13:16:05;21.30;99.90
37956;DHT22;23776;51.592;7.180;2023-03-17T13:18:50;21.40;99.90
37956;DHT22;23776;51.592;7.180;2023-03-17T13:21:18;21.40;99.90
37956;DHT22;23776;51.592;7.180;2023-03-17T13:37:32;22.20;99.90
37956;DHT22;23776;51.592;7.180;2023-03-17T13:40:20;22.10;99.90
37956;DHT22;23776;51.592;7.180;2023-03-17T13:45:44;21.90;99.90
37956;DHT22;23776;51.592;7.180;2023-03-17T13:50:45;21.90;99.90
37956;DHT22;23776;51.592;7.180;2023-03-17T13:53:12;21.80;99.90
37956;DHT22;23776;51.592;7.180;2023-03-17T13:56:03;21.60;99.90
37956;DHT22;23776;51.592;7.180;2023-03-17T13:58:32;21.50;99.90
37956;DHT22;23776;51.592;7.180;2023-03-17T14:01:04;21.50;99.90
37956;DHT22;23776;51.592;7.180;2023-03-17T14:03:39;21.30;99.90
37956;DHT22;23776;51.592;7.180;2023-03-17T14:06:08;21.10;99.90
37956;DHT22;23776;51.592;7.180;2023-03-17T14:08:40;20.80;99.90
37956;DHT22;23776;51.592;7.180;2023-03-17T14:16:41;20.50;99.90
37956;DHT22;23776;51.592;7.180;2023-03-17T14:19:15;20.50;99.90
37956;DHT22;23776;51.592;7.180;2023-03-17T14:21:42;20.40;99.90
37956;DHT22;23776;51.592;7.180;2023-03-17T14:24:23;20.40;99.90
37956;DHT22;23776;51.592;7.180;2023-03-17T14:26:50;20.30;99.90
37956;DHT22;23776;51.592;7.180;2023-03-17T14:29:19;20.30;99.90
37956;DHT22;23776;51.592;7.180;2023-03-17T14:31:47;20.20;99.90
37956;DHT22;23776;51.592;7.180;2023-03-17T14:34:14;20.20;99.90
37956;DHT22;23776;51.592;7.180;2023-03-17T14:36:40;20.30;99.90
37956;DHT22;23776;51.592;7.180;2023-03-17T14:39:06;20.30;99.90
37956;DHT22;23776;51.592;7.180;2023-03-17T14:41:33;20.40;99.90
37956;DHT22;23776;51.592;7.180;2023-03-17T14:44:00;20.40;99.90
37956;DHT22;23776;51.592;7.180;2023-03-17T14:46:30;20.50;99.90
37956;DHT22;23776;51.592;7.180;2023-03-17T14:48:59;20.60;99.90
37956;DHT22;23776;51.592;7.180;2023-03-17T14:51:29;20.80;99.90
37956;DHT22;23776;51.592;7.180;2023-03-17T14:53:58;20.90;99.90
37956;DHT22;23776;51.592;7.180;2023-03-17T14:56:34;20.70;99.90
37956;DHT22;23776;51.592;7.180;2023-03-17T14:59:33;20.50;99.90
37956;DHT22;23776;51.592;7.180;2023-03-17T15:04:54;20.70;99.90
37956;DHT22;23776;51.592;7.180;2023-03-17T15:07:40;20.90;99.90
37956;DHT22;23776;51.592;7.180;2023-03-17T15:10:21;21.10;99.90
37956;DHT22;23776;51.592;7.180;2023-03-17T15:12:47;21.30;99.90
37956;DHT22;23776;51.592;7.180;2023-03-17T15:15:23;21.40;99.90
37956;DHT22;23776;51.592;7.180;2023-03-17T15:18:03;21.40;99.90
37956;DHT22;23776;51.592;7.180;2023-03-17T15:20:33;21.40;99.90
37956;DHT22;23776;51.592;7.180;2023-03-17T15:23:04;21.50;99.90
37956;DHT22;23776;51.592;7.180;2023-03-17T15:27:56;21.00;99.90
37956;DHT22;23776;51.592;7.180;2023-03-17T15:30:22;20.90;99.90
37956;DHT22;23776;51.592;7.180;2023-03-17T15:32:57;20.80;99.90
37956;DHT22;23776;51.592;7.180;2023-03-17T15:35:23;20.80;99.90
37956;DHT22;23776;51.592;7.180;2023-03-17T15:37:49;20.70;99.90
37956;DHT22;23776;51.592;7.180;2023-03-17T15:40:15;20.50;99.90
37956;DHT22;23776;51.592;7.180;2023-03-17T15:42:41;20.30;99.90
37956;DHT22;23776;51.592;7.180;2023-03-17T15:45:07;20.10;99.90
37956;DHT22;23776;51.592;7.180;2023-03-17T15:47:35;19.90;99.90
37956;DHT22;23776;51.592;7.180;2023-03-17T15:50:19;19.60;99.90
37956;DHT22;23776;51.592;7.180;2023-03-17T15:52:49;19.40;99.90
37956;DHT22;23776;51.592;7.180;2023-03-17T15:55:23;19.20;99.90
37956;DHT22;23776;51.592;7.180;2023-03-17T15:57:49;19.00;99.90
37956;DHT22;23776;51.592;7.180;2023-03-17T16:00:17;18.80;99.90
37956;DHT22;23776;51.592;7.180;2023-03-17T16:02:44;18.80;99.90
37956;DHT22;23776;51.592;7.180;2023-03-17T16:05:17;18.80;99.90
37956;DHT22;23776;51.592;7.180;2023-03-17T16:07:44;18.70;99.90
37956;DHT22;23776;51.592;7.180;2023-03-17T16:12:49;18.60;99.90
37956;DHT22;23776;51.592;7.180;2023-03-17T16:15:17;18.40;99.90
37956;DHT22;23776;51.592;7.180;2023-03-17T16:17:45;18.40;99.90
37956;DHT22;23776;51.592;7.180;2023-03-17T16:20:25;18.30;99.90
37956;DHT22;23776;51.592;7.180;2023-03-17T16:22:56;18.30;99.90
37956;DHT22;23776;51.592;7.180;2023-03-17T16:25:30;18.20;99.90
37956;DHT22;23776;51.592;7.180;2023-03-17T16:27:58;18.20;99.90
37956;DHT22;23776;51.592;7.180;2023-03-17T16:30:30;18.10;99.90
37956;DHT22;23776;51.592;7.180;2023-03-17T16:33:02;18.10;99.90
37956;DHT22;23776;51.592;7.180;2023-03-17T16:35:28;18.00;99.90
37956;DHT22;23776;51.592;7.180;2023-03-17T16:37:54;17.90;99.90
37956;DHT22;23776;51.592;7.180;2023-03-17T16:40:34;17.80;99.90
37956;DHT22;23776;51.592;7.180;2023-03-17T16:43:04;17.80;99.90
37956;DHT22;23776;51.592;7.180;2023-03-17T16:45:33;17.70;99.90
37956;DHT22;23776;51.592;7.180;2023-03-17T16:48:01;17.60;99.90
37956;DHT22;23776;51.592;7.180;2023-03-17T16:50:29;17.60;99.90
37956;DHT22;23776;51.592;7.180;2023-03-17T16:52:55;17.50;99.90
37956;DHT22;23776;51.592;7.180;2023-03-17T16:55:22;17.40;99.90
37956;DHT22;23776;51.592;7.180;2023-03-17T16:57:50;17.40;99.90
37956;DHT22;23776;51.592;7.180;2023-03-17T17:00:28;17.30;99.90
37956;DHT22;23776;51.592;7.180;2023-03-17T17:02:54;17.20;99.90
37956;DHT22;23776;51.592;7.180;2023-03-17T17:05:24;17.20;99.90
37956;DHT22;23776;51.592;7.180;2023-03-17T17:07:52;17.10;99.90
37956;DHT22;23776;51.592;7.180;2023-03-17T17:10:19;17.10;99.90
37956;DHT22;23776;51.592;7.180;2023-03-17T17:12:46;17.00;99.90
37956;DHT22;23776;51.592;7.180;2023-03-17T17:15:17;16.90;99.90
37956;DHT22;23776;51.592;7.180;2023-03-17T17:17:46;16.90;99.90
37956;DHT22;23776;51.592;7.180;2023-03-17T17:20:15;16.80;99.90
37956;DHT22;23776;51.592;7.180;2023-03-17T17:22:41;16.80;99.90
37956;DHT22;23776;51.592;7.180;2023-03-17T17:25:07;16.70;99.90
37956;DHT22;23776;51.592;7.180;2023-03-17T17:27:38;16.70;99.90
37956;DHT22;23776;51.592;7.180;2023-03-17T17:30:06;16.50;99.90
37956;DHT22;23776;51.592;7.180;2023-03-17T17:32:32;16.60;99.90